createdAt,value
2018-11-23T00:01:47.029Z,-0.10
2018-11-23T00:04:19.067Z,-0.10
2018-11-23T00:06:51.123Z,-0.10
2018-11-23T00:09:22.352Z,-0.10
2018-11-23T00:11:53.434Z,-0.10
2018-11-23T00:14:24.625Z,-0.10
2018-11-23T00:16:55.736Z,-0.10
2018-11-23T00:19:26.884Z,-0.10
2018-11-23T00:21:58.077Z,-0.10
2018-11-23T00:24:29.275Z,-0.10
2018-11-23T00:27:00.477Z,-0.10
2018-11-23T00:29:31.753Z,-0.10
2018-11-23T00:32:02.959Z,-0.10
2018-11-23T00:34:34.088Z,-0.10
2018-11-23T00:37:05.230Z,-0.10
2018-11-23T00:39:36.398Z,-0.10
2018-11-23T00:42:07.676Z,-0.20
2018-11-23T00:44:38.800Z,-0.20
2018-11-23T00:47:09.954Z,-0.20
2018-11-23T00:49:41.125Z,-0.20
2018-11-23T00:52:12.275Z,-0.20
2018-11-23T00:54:43.462Z,-0.20
2018-11-23T00:57:20.596Z,-0.20
2018-11-23T00:59:57.753Z,-0.20
2018-11-23T01:02:28.964Z,-0.30
2018-11-23T01:05:00.176Z,-0.30
2018-11-23T01:07:31.310Z,-0.30
2018-11-23T01:10:02.588Z,-0.30
2018-11-23T01:12:33.837Z,-0.30
2018-11-23T01:15:05.155Z,-0.30
2018-11-23T01:17:36.463Z,-0.30
2018-11-23T01:20:12.255Z,-0.30
2018-11-23T01:22:43.576Z,-0.30
2018-11-23T01:25:15.940Z,-0.30
2018-11-23T01:27:48.065Z,-0.30
2018-11-23T01:30:24.025Z,-0.30
2018-11-23T01:32:55.170Z,-0.30
2018-11-23T01:35:26.549Z,-0.40
2018-11-23T01:37:57.665Z,-0.40
2018-11-23T01:40:30.175Z,-0.40
2018-11-23T01:43:01.329Z,-0.40
2018-11-23T01:45:32.517Z,-0.40
2018-11-23T01:48:03.661Z,-0.40
2018-11-23T01:50:34.916Z,-0.50
2018-11-23T01:53:06.126Z,-0.50
2018-11-23T01:55:37.256Z,-0.50
2018-11-23T01:58:08.365Z,-0.50
2018-11-23T02:00:39.542Z,-0.60
2018-11-23T02:03:10.664Z,-0.60
2018-11-23T02:05:43.480Z,-0.60
2018-11-23T02:08:14.627Z,-0.60
2018-11-23T02:10:45.768Z,-0.70
2018-11-23T02:13:16.898Z,-0.70
2018-11-23T02:15:48.071Z,-0.70
2018-11-23T02:18:19.196Z,-0.70
2018-11-23T02:20:50.324Z,-0.70
2018-11-23T02:23:21.418Z,-0.80
2018-11-23T02:25:53.079Z,-0.80
2018-11-23T02:28:24.179Z,-0.80
2018-11-23T02:30:55.438Z,-0.80
2018-11-23T02:33:26.606Z,-0.80
2018-11-23T02:35:57.888Z,-0.80
2018-11-23T02:38:28.990Z,-0.90
2018-11-23T02:41:00.157Z,-0.90
2018-11-23T02:43:31.255Z,-0.90
2018-11-23T02:46:02.449Z,-0.80
2018-11-23T02:48:33.569Z,-0.80
2018-11-23T02:51:04.824Z,-0.80
2018-11-23T02:53:36.029Z,-0.80
2018-11-23T02:56:07.361Z,-0.80
2018-11-23T02:58:38.492Z,-0.80
2018-11-23T03:01:09.719Z,-0.90
2018-11-23T03:03:40.881Z,-0.90
2018-11-23T03:06:12.022Z,-0.90
2018-11-23T03:08:43.145Z,-0.90
2018-11-23T03:11:14.252Z,-0.90
2018-11-23T03:13:45.376Z,-0.90
2018-11-23T03:16:16.521Z,-0.90
2018-11-23T03:18:47.669Z,-1.00
2018-11-23T03:21:18.912Z,-1.00
2018-11-23T03:23:50.008Z,-1.00
2018-11-23T03:26:21.156Z,-1.00
2018-11-23T03:28:52.933Z,-1.00
2018-11-23T03:31:25.297Z,-1.00
2018-11-23T03:33:56.613Z,-1.00
2018-11-23T03:36:27.757Z,-1.00
2018-11-23T03:38:58.896Z,-1.00
2018-11-23T03:41:30.117Z,-1.00
2018-11-23T03:44:01.238Z,-1.00
2018-11-23T03:46:32.457Z,-1.00
2018-11-23T03:49:03.744Z,-1.00
2018-11-23T03:51:34.909Z,-1.00
2018-11-23T03:54:06.787Z,-1.00
2018-11-23T03:56:38.131Z,-1.10
2018-11-23T03:59:09.233Z,-1.10
2018-11-23T04:01:40.361Z,-1.10
2018-11-23T04:04:11.528Z,-1.10
2018-11-23T04:06:42.690Z,-1.10
2018-11-23T04:09:13.828Z,-1.10
2018-11-23T04:11:44.958Z,-1.10
2018-11-23T04:14:16.172Z,-1.10
2018-11-23T04:16:47.315Z,-1.10
2018-11-23T04:19:18.439Z,-1.10
2018-11-23T04:21:49.575Z,-1.20
2018-11-23T04:24:20.717Z,-1.20
2018-11-23T04:26:51.902Z,-1.20
2018-11-23T04:29:23.019Z,-1.20
2018-11-23T04:31:54.305Z,-1.20
2018-11-23T04:34:25.853Z,-1.20
2018-11-23T04:36:58.101Z,-1.10
2018-11-23T04:39:31.668Z,-1.20
2018-11-23T04:42:02.810Z,-1.20
2018-11-23T04:44:33.952Z,-1.10
2018-11-23T04:47:05.104Z,-1.10
2018-11-23T04:49:36.234Z,-1.10
2018-11-23T04:52:07.578Z,-1.10
2018-11-23T04:54:38.696Z,-1.10
2018-11-23T04:57:09.856Z,-1.20
2018-11-23T04:59:40.962Z,-1.20
2018-11-23T05:02:12.109Z,-1.20
2018-11-23T05:04:43.265Z,-1.20
2018-11-23T05:07:17.222Z,-1.20
2018-11-23T05:09:48.628Z,-1.20
2018-11-23T05:12:19.742Z,-1.20
2018-11-23T05:14:50.893Z,-1.20
2018-11-23T05:17:22.078Z,-1.30
2018-11-23T05:19:53.285Z,-1.30
2018-11-23T05:22:24.474Z,-1.30
2018-11-23T05:24:55.579Z,-1.30
2018-11-23T05:27:26.827Z,-1.30
2018-11-23T05:29:57.957Z,-1.30
2018-11-23T05:32:29.105Z,-1.30
2018-11-23T05:35:00.241Z,-1.30
2018-11-23T05:37:31.483Z,-1.30
2018-11-23T05:40:02.726Z,-1.30
2018-11-23T05:42:33.900Z,-1.30
2018-11-23T05:45:05.941Z,-1.40
2018-11-23T05:47:38.019Z,-1.40
2018-11-23T05:50:13.664Z,-1.40
2018-11-23T05:52:45.285Z,-1.40
2018-11-23T05:55:16.420Z,-1.40
2018-11-23T05:57:47.656Z,-1.40
2018-11-23T06:00:21.324Z,-1.40
2018-11-23T06:02:52.523Z,-1.40
2018-11-23T06:05:23.669Z,-1.40
2018-11-23T06:07:54.820Z,-1.40
2018-11-23T06:10:25.960Z,-1.40
2018-11-23T06:12:57.097Z,-1.40
2018-11-23T06:15:28.242Z,-1.40
2018-11-23T06:17:59.461Z,-1.40
2018-11-23T06:20:30.614Z,-1.50
2018-11-23T06:23:01.798Z,-1.50
2018-11-23T06:25:41.193Z,-1.50
2018-11-23T06:28:12.322Z,-1.50
2018-11-23T06:30:43.438Z,-1.50
2018-11-23T06:33:35.124Z,-1.50
2018-11-23T06:36:06.342Z,-1.50
2018-11-23T06:38:37.596Z,-1.50
2018-11-23T06:41:10.555Z,-1.50
2018-11-23T06:43:41.601Z,-1.50
2018-11-23T06:46:13.381Z,-1.50
2018-11-23T06:48:44.648Z,-1.50
2018-11-23T06:51:15.789Z,-1.50
2018-11-23T06:53:47.049Z,-1.50
2018-11-23T06:56:18.191Z,-1.50
2018-11-23T06:58:49.348Z,-1.50
2018-11-23T07:01:20.581Z,-1.50
2018-11-23T07:03:52.437Z,-1.50
2018-11-23T07:06:23.625Z,-1.50
2018-11-23T07:08:54.851Z,-1.40
2018-11-23T07:11:26.040Z,-1.40
2018-11-23T07:14:03.739Z,-1.40
2018-11-23T07:16:29.271Z,-1.40
2018-11-23T07:19:00.452Z,-1.40
2018-11-23T07:21:31.643Z,-1.40
2018-11-23T07:24:02.903Z,-1.50
2018-11-23T07:26:34.139Z,-1.50
2018-11-23T07:29:05.656Z,-1.50
2018-11-23T07:31:36.956Z,-1.50
2018-11-23T07:34:08.122Z,-1.50
2018-11-23T07:36:39.370Z,-1.50
2018-11-23T07:39:46.987Z,-1.50
2018-11-23T07:42:28.806Z,-1.50
2018-11-23T07:45:00.816Z,-1.50
2018-11-23T07:47:32.002Z,-1.40
2018-11-23T07:50:03.152Z,-1.40
2018-11-23T07:52:34.270Z,-1.40
2018-11-23T07:55:06.454Z,-1.40
2018-11-23T07:57:37.730Z,-1.40
2018-11-23T08:00:13.830Z,-1.40
2018-11-23T08:02:45.473Z,-1.40
2018-11-23T08:05:17.491Z,-1.40
2018-11-23T08:07:48.609Z,-1.30
2018-11-23T08:10:18.483Z,-1.30
2018-11-23T08:12:50.666Z,-1.30
2018-11-23T08:15:25.622Z,-1.20
2018-11-23T08:17:56.771Z,-1.20
2018-11-23T08:20:28.008Z,-1.20
2018-11-23T08:22:59.136Z,-1.20
2018-11-23T08:25:30.272Z,-1.10
2018-11-23T08:28:01.390Z,-1.10
2018-11-23T08:30:32.599Z,-1.10
2018-11-23T08:33:03.805Z,-1.00
2018-11-23T08:35:35.016Z,-1.00
2018-11-23T08:38:06.260Z,-0.90
2018-11-23T08:40:39.261Z,-0.90
2018-11-23T08:43:10.485Z,-0.90
2018-11-23T08:45:41.646Z,-0.80
2018-11-23T08:48:12.827Z,-0.80
2018-11-23T08:50:44.107Z,-0.70
2018-11-23T08:53:15.255Z,-0.70
2018-11-23T08:55:46.459Z,-0.60
2018-11-23T08:58:17.704Z,-0.60
2018-11-23T09:00:48.885Z,-0.50
2018-11-23T09:03:20.150Z,-0.50
2018-11-23T09:05:51.423Z,-0.40
2018-11-23T09:08:22.650Z,-0.30
2018-11-23T09:10:54.117Z,-0.30
2018-11-23T09:13:25.347Z,-0.20
2018-11-23T09:15:56.561Z,-0.20
2018-11-23T09:18:27.746Z,-0.10
2018-11-23T09:20:58.938Z,0.00
2018-11-23T09:23:30.106Z,0.00
2018-11-23T09:26:01.293Z,0.10
2018-11-23T09:28:32.448Z,0.20
2018-11-23T09:31:03.678Z,0.20
2018-11-23T09:33:34.872Z,0.30
2018-11-23T09:36:06.034Z,0.30
2018-11-23T09:38:37.314Z,0.40
2018-11-23T09:41:08.514Z,0.50
2018-11-23T09:43:39.756Z,0.60
2018-11-23T09:46:11.000Z,0.70
2018-11-23T09:48:42.182Z,0.80
2018-11-23T09:51:13.307Z,1.00
2018-11-23T09:53:44.495Z,1.20
2018-11-23T09:56:15.767Z,1.40
2018-11-23T09:58:47.023Z,1.50
2018-11-23T10:01:18.244Z,1.60
2018-11-23T10:03:49.358Z,1.70
2018-11-23T10:06:20.575Z,1.80
2018-11-23T10:08:51.787Z,2.00
2018-11-23T10:11:22.981Z,2.00
2018-11-23T10:13:55.040Z,2.20
2018-11-23T10:16:26.273Z,2.30
2018-11-23T10:18:57.369Z,2.50
2018-11-23T10:21:40.012Z,2.70
2018-11-23T10:24:16.556Z,2.90
2018-11-23T10:26:47.918Z,3.10
2018-11-23T10:29:19.498Z,3.30
2018-11-23T10:31:50.686Z,3.40
2018-11-23T10:34:21.829Z,3.60
2018-11-23T10:36:53.006Z,3.80
2018-11-23T10:39:24.179Z,4.00
2018-11-23T10:41:55.341Z,4.30
2018-11-23T10:44:26.492Z,4.60
2018-11-23T10:46:57.699Z,4.80
2018-11-23T10:49:29.772Z,5.00
2018-11-23T10:52:00.954Z,5.20
2018-11-23T10:54:32.087Z,5.40
2018-11-23T10:57:03.346Z,5.60
2018-11-23T10:59:34.506Z,5.80
2018-11-23T11:02:22.978Z,6.00
2018-11-23T11:05:12.766Z,6.20
2018-11-23T11:07:43.995Z,6.40
2018-11-23T11:10:15.347Z,6.60
2018-11-23T11:12:46.585Z,6.80
2018-11-23T11:15:17.744Z,6.90
2018-11-23T11:17:49.018Z,7.00
2018-11-23T11:20:20.387Z,7.10
2018-11-23T11:22:51.771Z,7.30
2018-11-23T11:25:22.885Z,7.60
2018-11-23T11:27:54.134Z,7.90
2018-11-23T11:30:25.296Z,8.20
2018-11-23T11:32:56.517Z,8.40
2018-11-23T11:35:27.671Z,8.50
2018-11-23T11:37:58.851Z,8.60
2018-11-23T11:40:30.018Z,8.80
2018-11-23T11:43:01.231Z,8.90
2018-11-23T11:45:32.430Z,9.10
2018-11-23T11:48:03.628Z,9.40
2018-11-23T11:50:34.770Z,9.60
2018-11-23T11:53:06.032Z,9.80
2018-11-23T11:55:37.177Z,10.00
2018-11-23T11:58:08.405Z,10.20
2018-11-23T12:00:39.688Z,10.40
2018-11-23T12:03:10.844Z,10.70
2018-11-23T12:05:42.005Z,10.90
2018-11-23T12:08:13.208Z,10.90
2018-11-23T12:10:44.410Z,10.80
2018-11-23T12:13:15.579Z,10.50
2018-11-23T12:15:46.789Z,10.40
2018-11-23T12:18:18.045Z,10.60
2018-11-23T12:20:49.169Z,10.60
2018-11-23T12:23:20.309Z,10.70
2018-11-23T12:25:51.448Z,10.90
2018-11-23T12:28:22.589Z,10.80
2018-11-23T12:30:53.731Z,10.60
2018-11-23T12:33:24.909Z,10.40
2018-11-23T12:35:56.172Z,10.30
2018-11-23T12:38:27.504Z,10.40
2018-11-23T12:40:58.669Z,10.50
2018-11-23T12:43:29.840Z,10.70
2018-11-23T12:46:01.028Z,11.00
2018-11-23T12:48:32.283Z,11.20
2018-11-23T12:51:03.430Z,11.50
2018-11-23T12:53:34.726Z,11.60
2018-11-23T12:56:06.465Z,11.90
2018-11-23T12:58:37.684Z,12.00
2018-11-23T13:01:08.981Z,12.00
2018-11-23T13:03:40.273Z,12.00
2018-11-23T13:06:11.393Z,11.80
2018-11-23T13:08:45.398Z,11.70
2018-11-23T13:11:16.562Z,11.60
2018-11-23T13:13:47.748Z,11.60
2018-11-23T13:16:18.918Z,11.80
2018-11-23T13:18:50.095Z,11.90
2018-11-23T13:21:21.250Z,12.00
2018-11-23T13:23:52.447Z,12.20
2018-11-23T13:26:26.446Z,12.30
2018-11-23T13:28:57.692Z,12.30
2018-11-23T13:31:28.953Z,12.20
2018-11-23T13:34:00.221Z,12.10
2018-11-23T13:36:31.498Z,12.20
2018-11-23T13:39:03.670Z,12.30
2018-11-23T13:41:35.696Z,12.20
2018-11-23T13:44:07.013Z,12.30
2018-11-23T13:46:38.186Z,12.20
2018-11-23T13:49:10.389Z,12.00
2018-11-23T13:51:41.612Z,12.00
2018-11-23T13:54:12.784Z,12.00
2018-11-23T13:56:45.249Z,12.00
2018-11-23T13:59:16.694Z,12.00
2018-11-23T14:01:47.922Z,11.90
2018-11-23T14:04:19.090Z,11.70
2018-11-23T14:06:50.289Z,11.50
2018-11-23T14:09:21.560Z,11.50
2018-11-23T14:11:52.911Z,11.50
2018-11-23T14:14:24.205Z,11.40
2018-11-23T14:16:55.381Z,11.30
2018-11-23T14:19:26.558Z,11.10
2018-11-23T14:21:57.767Z,11.00
2018-11-23T14:24:31.134Z,10.90
2018-11-23T14:27:02.286Z,10.80
2018-11-23T14:29:33.447Z,10.60
2018-11-23T14:32:04.630Z,10.50
2018-11-23T14:34:35.832Z,10.40
2018-11-23T14:37:07.169Z,10.30
2018-11-23T14:39:38.429Z,10.20
2018-11-23T14:42:10.350Z,10.20
2018-11-23T14:44:41.736Z,10.10
2018-11-23T14:47:13.021Z,9.90
2018-11-23T14:49:44.192Z,9.60
2018-11-23T14:52:22.789Z,9.50
2018-11-23T14:54:54.015Z,9.30
2018-11-23T14:57:25.257Z,9.30
2018-11-23T14:59:56.457Z,9.20
2018-11-23T15:02:27.734Z,9.10
2018-11-23T15:04:58.954Z,9.00
2018-11-23T15:07:30.197Z,8.80
2018-11-23T15:10:01.462Z,8.70
2018-11-23T15:12:32.720Z,8.50
2018-11-23T15:15:04.029Z,8.40
2018-11-23T15:17:38.742Z,8.20
2018-11-23T15:20:15.920Z,8.10
2018-11-23T15:22:47.849Z,8.00
2018-11-23T15:25:24.689Z,7.80
2018-11-23T15:28:01.740Z,7.70
2018-11-23T15:30:47.098Z,7.60
2018-11-23T15:33:18.945Z,7.50
2018-11-23T15:35:50.157Z,7.40
2018-11-23T15:38:22.963Z,7.20
2018-11-23T15:40:54.103Z,7.10
2018-11-23T15:43:25.258Z,7.00
2018-11-23T15:45:56.425Z,6.90
2018-11-23T15:48:27.646Z,6.80
2018-11-23T15:51:06.746Z,6.70
2018-11-23T15:53:54.420Z,6.70
2018-11-23T15:56:25.586Z,6.60
2018-11-23T15:58:56.844Z,6.40
2018-11-23T16:01:27.984Z,6.40
2018-11-23T16:03:59.163Z,6.30
2018-11-23T16:06:30.514Z,6.20
2018-11-23T16:09:01.775Z,6.10
2018-11-23T16:11:32.956Z,6.00
2018-11-23T16:14:04.139Z,5.90
2018-11-23T16:16:35.377Z,5.80
2018-11-23T16:19:06.551Z,5.80
2018-11-23T16:21:37.756Z,5.70
2018-11-23T16:24:09.041Z,5.60
2018-11-23T16:26:40.210Z,5.60
2018-11-23T16:29:11.378Z,5.50
2018-11-23T16:31:47.363Z,5.40
2018-11-23T16:34:24.165Z,5.30
2018-11-23T16:36:55.407Z,5.30
2018-11-23T16:39:26.610Z,5.20
2018-11-23T16:41:57.895Z,5.20
2018-11-23T16:44:29.045Z,5.10
2018-11-23T16:47:00.214Z,5.10
2018-11-23T16:49:31.383Z,5.00
2018-11-23T16:52:02.693Z,4.90
2018-11-23T16:54:33.952Z,4.90
2018-11-23T16:57:05.502Z,4.80
2018-11-23T17:08:15.063Z,4.70
2018-11-23T17:10:46.228Z,4.60
2018-11-23T17:13:17.387Z,4.60
2018-11-23T17:15:48.589Z,4.50
2018-11-23T17:18:20.166Z,4.50
2018-11-23T17:58:24.237Z,3.90
2018-11-23T18:00:55.711Z,3.90
2018-11-23T18:03:33.175Z,3.80
2018-11-23T18:06:06.999Z,3.80
2018-11-23T18:08:52.275Z,3.70
2018-11-23T18:23:49.139Z,3.50
2018-11-23T18:26:20.420Z,3.50
2018-11-23T18:28:51.661Z,3.40
2018-11-23T18:42:58.415Z,3.30
2018-11-23T18:48:18.541Z,3.20
2018-11-23T18:50:49.861Z,3.20
2018-11-23T19:07:59.867Z,2.90
2018-11-23T19:13:25.534Z,2.90
2018-11-23T19:19:04.604Z,2.80
2018-11-23T19:21:35.858Z,2.80
2018-11-23T19:24:07.279Z,2.80
2018-11-23T19:26:38.645Z,2.80
2018-11-23T19:29:22.214Z,2.80
2018-11-23T19:31:59.573Z,2.70
2018-11-23T19:34:30.789Z,2.70
2018-11-23T19:37:11.913Z,2.70
2018-11-23T19:39:43.128Z,2.70
2018-11-23T19:42:20.086Z,2.70
2018-11-23T19:44:51.251Z,2.70
2018-11-23T19:53:05.715Z,2.60
2018-11-23T19:55:37.023Z,2.60
2018-11-23T20:01:14.460Z,2.60
2018-11-23T20:03:45.826Z,2.60
2018-11-23T20:06:22.461Z,2.60
2018-11-23T20:09:03.329Z,2.60
2018-11-23T20:11:53.138Z,2.60
2018-11-23T20:14:24.297Z,2.60
2018-11-23T20:16:55.738Z,2.60
2018-11-23T20:19:28.350Z,2.50
2018-11-23T20:24:46.306Z,2.50
2018-11-23T20:27:17.636Z,2.40
2018-11-23T20:29:53.968Z,2.40
2018-11-23T20:32:28.900Z,2.40
2018-11-23T20:35:00.170Z,2.30
2018-11-23T20:37:32.718Z,2.30
2018-11-23T20:40:04.026Z,2.30
2018-11-23T20:42:36.365Z,2.20
2018-11-23T20:45:10.555Z,2.20
2018-11-23T20:50:32.975Z,2.10
2018-11-23T20:55:53.236Z,2.10
2018-11-23T21:06:39.579Z,2.00
2018-11-23T21:09:11.587Z,1.90
2018-11-23T21:11:42.892Z,1.90
2018-11-23T21:22:41.189Z,1.80
2018-11-23T21:25:12.820Z,1.80
2018-11-23T21:27:44.073Z,1.80
2018-11-23T21:30:19.299Z,1.70
2018-11-23T21:32:51.845Z,1.70
2018-11-23T21:35:23.146Z,1.70
2018-11-23T21:37:54.482Z,1.70
2018-11-23T21:40:25.769Z,1.60
2018-11-23T21:42:57.091Z,1.60
2018-11-23T21:45:28.395Z,1.60
2018-11-23T21:47:59.553Z,1.60
2018-11-23T21:50:30.752Z,1.60
2018-11-23T21:53:01.961Z,1.60
2018-11-23T21:55:33.218Z,1.50
2018-11-23T21:58:04.458Z,1.50
2018-11-23T22:00:35.652Z,1.50
2018-11-23T22:03:06.963Z,1.50
2018-11-23T22:05:43.805Z,1.50
2018-11-23T22:08:20.956Z,1.50
2018-11-23T22:10:54.541Z,1.40
2018-11-23T22:13:25.804Z,1.40
2018-11-23T22:15:57.014Z,1.40
2018-11-23T22:18:34.377Z,1.40
2018-11-23T22:21:10.767Z,1.40
2018-11-23T22:23:42.037Z,1.40
2018-11-23T22:26:17.158Z,1.40
2018-11-23T22:31:37.413Z,1.30
2018-11-23T22:34:08.613Z,1.30
2018-11-23T22:36:39.773Z,1.20
2018-11-23T22:39:10.968Z,1.20
2018-11-23T22:41:42.285Z,1.20
2018-11-23T22:44:13.555Z,1.10
2018-11-23T22:46:44.769Z,1.10
2018-11-23T22:49:15.975Z,1.10
2018-11-23T22:51:47.226Z,1.10
2018-11-23T22:54:18.450Z,1.10
2018-11-23T22:56:50.809Z,1.10
2018-11-23T22:59:28.074Z,1.10
2018-11-23T23:01:59.228Z,1.00
2018-11-23T23:04:30.819Z,1.00
2018-11-23T23:07:01.998Z,1.00
2018-11-23T23:09:33.312Z,1.00
2018-11-23T23:12:04.519Z,1.00
2018-11-23T23:14:35.710Z,1.00
2018-11-23T23:17:06.954Z,0.90
2018-11-23T23:19:38.309Z,0.90
2018-11-23T23:22:09.613Z,0.90
2018-11-23T23:24:40.977Z,0.90
2018-11-23T23:27:17.495Z,0.90
2018-11-23T23:29:48.713Z,0.90
2018-11-23T23:32:19.865Z,0.90
2018-11-23T23:34:51.055Z,0.90
2018-11-23T23:37:22.213Z,0.90
2018-11-23T23:39:53.439Z,0.80
2018-11-23T23:42:24.593Z,0.80
2018-11-23T23:44:55.765Z,0.80
2018-11-23T23:47:26.979Z,0.80
2018-11-23T23:49:58.267Z,0.70
2018-11-23T23:52:29.448Z,0.70
2018-11-23T23:55:00.649Z,0.70
2018-11-23T23:57:35.897Z,0.70
